Time;durP1;ratioP1;P1;durP2;ratioP2;P2;SDS_P1;SDS_P2;PMS_P1;PMS_P2;Temp;Humidity;BMP_temperature;BMP_pressure;BME280_temperature;BME280_humidity;BME280_pressure;Samples;Min_cycle;Max_cycle;Signal;HPM_P1;HPM_P2
2023/03/05 00:00:35;;;;;;;3.90;1.20;;;;;;;13.95;38.29;101992.94;4974486;28;20037;-61
2023/03/05 00:03:00;;;;;;;2.63;1.42;;;;;;;13.89;39.42;101988.91;4975513;28;20086;-62
2023/03/05 00:05:25;;;;;;;5.30;2.00;;;;;;;13.94;38.72;101997.47;4974378;28;20106;-61
2023/03/05 00:07:51;;;;;;;5.25;1.50;;;;;;;13.93;38.35;101997.59;4974636;28;20045;-61
2023/03/05 00:10:16;;;;;;;6.43;1.70;;;;;;;13.85;39.58;101981.16;4958074;28;20543;-61
2023/03/05 00:12:42;;;;;;;6.07;1.40;;;;;;;13.93;39.19;101994.91;4958134;28;20047;-61
2023/03/05 00:15:08;;;;;;;7.82;1.92;;;;;;;13.87;38.72;101984.63;4974154;28;20049;-61
2023/03/05 00:17:33;;;;;;;6.18;1.27;;;;;;;13.82;38.86;101978.72;4975493;28;20027;-61
2023/03/05 00:19:59;;;;;;;8.20;1.85;;;;;;;13.93;39.42;101994.91;4958022;28;20089;-61
2023/03/05 00:22:25;;;;;;;13.02;1.70;;;;;;;13.76;39.20;101968.47;4974582;28;20438;-61
2023/03/05 00:24:50;;;;;;;7.00;1.65;;;;;;;13.90;39.53;101987.06;4973997;28;20069;-61
2023/03/05 00:27:16;;;;;;;4.43;1.10;;;;;;;13.87;38.59;101984.63;4974190;28;20027;-62
2023/03/05 00:29:41;;;;;;;8.20;1.23;;;;;;;13.85;39.11;101986.56;4958398;28;20042;-62
2023/03/05 00:32:07;;;;;;;6.43;1.02;;;;;;;13.84;39.72;101974.94;4975305;28;20050;-62
2023/03/05 00:34:32;;;;;;;4.07;1.70;;;;;;;13.82;39.06;101979.59;4975721;28;20026;-61
2023/03/05 00:36:57;;;;;;;10.45;1.40;;;;;;;13.80;39.26;101978.00;4959037;28;20122;-62
2023/03/05 00:39:23;;;;;;;5.38;1.65;;;;;;;13.78;38.74;101972.75;4974976;28;20035;-61
2023/03/05 00:41:48;;;;;;;5.95;3.13;;;;;;;13.78;39.11;101971.88;4958854;28;20042;-62
2023/03/05 00:44:13;;;;;;;10.57;2.30;;;;;;;13.77;39.36;101972.84;4958890;28;20132;-61
2023/03/05 00:46:39;;;;;;;4.18;1.65;;;;;;;13.76;39.83;101973.84;4959207;28;20411;-62
2023/03/05 00:49:05;;;;;;;10.25;2.45;;;;;;;13.66;39.17;101951.28;4974983;28;20051;-62
2023/03/05 00:51:30;;;;;;;4.40;2.38;;;;;;;13.76;39.32;101966.59;4976261;28;20391;-61
2023/03/05 00:53:56;;;;;;;6.00;2.10;;;;;;;13.76;39.87;101955.00;4976274;28;20043;-61
2023/03/05 00:56:21;;;;;;;8.10;2.10;;;;;;;13.77;39.74;101964.75;4958760;28;20038;-62
2023/03/05 00:58:46;;;;;;;6.35;2.42;;;;;;;13.77;40.07;101954.00;4975143;28;20034;-61
2023/03/05 01:01:13;;;;;;;3.80;1.88;;;;;;;13.78;40.49;101964.66;4958260;28;20422;-61
2023/03/05 01:03:38;;;;;;;6.07;2.38;;;;;;;13.78;40.14;101955.72;4975932;28;20042;-61
2023/03/05 01:06:07;;;;;;;4.20;1.88;;;;;;;13.78;40.41;101953.03;4958497;28;20093;-61
2023/03/05 01:08:33;;;;;;;6.35;2.40;;;;;;;13.70;39.81;101933.94;4974571;28;20035;-61
2023/03/05 01:10:58;;;;;;;6.72;2.22;;;;;;;13.78;39.72;101947.63;4974491;28;20466;-61
2023/03/05 01:13:24;;;;;;;3.95;1.90;;;;;;;13.77;40.32;101937.84;4975019;28;20118;-61
2023/03/05 01:15:49;;;;;;;8.10;2.38;;;;;;;13.78;39.62;101945.81;4974424;28;20062;-61
2023/03/05 01:18:16;;;;;;;6.20;1.83;;;;;;;13.77;39.30;101936.00;4958250;28;20043;-62
2023/03/05 01:20:42;;;;;;;5.82;1.90;;;;;;;13.77;40.03;101936.00;4958532;28;20416;-62
2023/03/05 01:23:08;;;;;;;9.85;1.80;;;;;;;13.77;40.58;101929.75;4958240;28;20121;-62
2023/03/05 01:25:33;;;;;;;10.05;2.30;;;;;;;13.67;39.63;101913.50;4958567;28;20489;-61
2023/03/05 01:27:58;;;;;;;5.82;2.10;;;;;;;13.75;39.63;101929.91;4957966;28;20093;-62
2023/03/05 01:30:24;;;;;;;6.35;1.67;;;;;;;13.76;39.75;101930.75;4973989;28;20117;-61
2023/03/05 01:32:49;;;;;;;5.65;1.98;;;;;;;13.67;40.73;101912.63;4958004;28;20101;-61
2023/03/05 01:35:18;;;;;;;2.50;1.65;;;;;;;13.74;39.89;101920.09;4958033;28;20474;-61
2023/03/05 01:37:43;;;;;;;9.77;2.28;;;;;;;13.74;40.56;101919.22;4958701;28;20390;-61
2023/03/05 01:40:10;;;;;;;8.35;2.28;;;;;;;13.67;40.46;101910.81;4974030;28;20034;-61
2023/03/05 01:42:35;;;;;;;6.95;1.90;;;;;;;13.75;40.81;101912.88;4974128;28;20128;-61
2023/03/05 01:45:12;;;;;;;8.68;2.08;;;;;;;13.75;40.31;101902.09;4975222;28;20070;-61
2023/03/05 01:47:38;;;;;;;2.72;1.50;;;;;;;13.71;40.12;101895.25;4958161;28;20050;-61
2023/03/05 01:50:06;;;;;;;5.68;1.48;;;;;;;13.72;39.66;101900.53;4959264;28;20034;-61
2023/03/05 01:52:34;;;;;;;6.38;1.95;;;;;;;13.65;40.40;101885.00;4974836;28;20047;-61
2023/03/05 01:55:07;;;;;;;8.65;1.60;;;;;;;13.70;39.53;101894.41;4957862;28;20039;-61
2023/03/05 01:57:36;;;;;;;5.50;1.52;;;;;;;13.70;40.24;101891.72;4957553;28;20031;-62
2023/03/05 02:00:28;;;;;;;10.32;1.73;;;;;;;13.63;39.77;101879.72;4957502;28;20035;-61
2023/03/05 02:02:55;;;;;;;12.25;2.80;;;;;;;13.70;39.64;101890.84;4974482;28;20042;-62
2023/03/05 02:05:34;;;;;;;8.63;1.50;;;;;;;13.68;40.43;101882.88;4957463;28;20027;-62
2023/03/05 02:08:02;;;;;;;13.65;1.38;;;;;;;13.67;39.91;101880.31;4973534;28;20027;-61
2023/03/05 02:10:48;;;;;;;5.43;1.67;;;;;;;13.65;39.81;101868.84;4973970;28;20025;-61
2023/03/05 02:13:17;;;;;;;4.07;1.50;;;;;;;13.64;39.82;101870.66;4972942;28;20082;-61
2023/03/05 02:15:43;;;;;;;18.27;2.38;;;;;;;13.62;40.59;101872.63;4973436;28;20035;-61
2023/03/05 02:18:09;;;;;;;11.18;2.47;;;;;;;13.62;40.17;101869.06;4973390;28;20038;-62
2023/03/05 02:20:56;;;;;;;4.93;1.50;;;;;;;13.62;39.93;101866.38;4941256;28;20026;-61
2023/03/05 02:23:24;;;;;;;4.47;1.50;;;;;;;13.51;39.67;101852.94;4989357;28;20041;-61
2023/03/05 02:25:50;;;;;;;4.78;1.38;;;;;;;13.50;40.05;101851.22;4973742;28;20107;-61
2023/03/05 02:28:21;;;;;;;7.85;1.77;;;;;;;13.57;40.78;101853.28;4957111;28;20086;-61
2023/03/05 02:30:46;;;;;;;8.13;1.65;;;;;;;13.49;40.48;101839.56;4972838;28;20050;-63
2023/03/05 02:33:16;;;;;;;5.50;1.42;;;;;;;13.55;40.11;101843.59;4957012;28;20050;-61
2023/03/05 02:35:42;;;;;;;6.38;1.20;;;;;;;13.55;40.25;101849.00;4956952;28;20161;-62
2023/03/05 02:38:11;;;;;;;8.10;1.50;;;;;;;13.47;40.04;101829.91;4973087;28;20047;-62
2023/03/05 02:40:37;;;;;;;4.88;1.55;;;;;;;13.53;40.61;101848.28;4941855;28;20129;-61
2023/03/05 02:43:02;;;;;;;6.03;1.42;;;;;;;13.52;40.40;101849.25;4973077;28;20069;-62
2023/03/05 02:45:27;;;;;;;11.50;1.10;;;;;;;13.42;40.95;101830.31;4973479;28;20035;-62
2023/03/05 02:47:54;;;;;;;5.25;1.60;;;;;;;13.50;40.80;101849.38;4973161;28;20049;-62
2023/03/05 02:50:19;;;;;;;4.15;1.70;;;;;;;13.40;41.10;101821.47;4973451;28;20062;-61
2023/03/05 02:52:45;;;;;;;6.95;1.33;;;;;;;13.47;39.71;101841.53;4957665;28;20121;-63
2023/03/05 02:55:10;;;;;;;6.22;1.58;;;;;;;13.36;40.68;101818.19;4973198;28;20201;-62
2023/03/05 02:57:36;;;;;;;4.53;1.48;;;;;;;13.32;40.86;101816.72;4973448;28;20051;-62
2023/03/05 03:00:02;;;;;;;6.72;1.40;;;;;;;13.34;40.10;101820.13;4974873;28;20034;-62
2023/03/05 03:02:27;;;;;;;4.25;1.20;;;;;;;13.39;40.62;101820.63;4973187;28;20046;-63
2023/03/05 03:04:53;;;;;;;6.75;1.65;;;;;;;13.41;39.82;101832.13;4975319;28;20026;-61
2023/03/05 03:07:18;;;;;;;6.15;1.10;;;;;;;13.41;40.64;101824.06;4975104;28;20549;-62
2023/03/05 03:09:44;;;;;;;2.80;1.52;;;;;;;13.42;39.96;101816.84;4973084;28;20526;-62
2023/03/05 03:12:09;;;;;;;5.93;1.15;;;;;;;13.41;41.24;101820.50;4974250;28;20038;-62
2023/03/05 03:14:38;;;;;;;8.52;1.70;;;;;;;13.41;40.75;101826.75;4973964;28;20035;-62
2023/03/05 03:17:07;;;;;;;4.22;1.60;;;;;;;13.41;39.95;101810.59;4956583;28;20026;-62
2023/03/05 03:19:34;;;;;;;12.18;2.15;;;;;;;13.43;40.95;101817.69;4989133;28;20022;-62
2023/03/05 03:21:59;;;;;;;4.85;1.70;;;;;;;13.42;40.88;101816.84;4972514;28;20039;-62
2023/03/05 03:24:25;;;;;;;3.00;1.83;;;;;;;13.43;39.96;101804.25;4974359;28;20486;-62
2023/03/05 03:26:50;;;;;;;6.55;1.38;;;;;;;13.40;40.79;101803.50;4960117;28;20046;-61
2023/03/05 03:29:16;;;;;;;7.35;1.33;;;;;;;13.40;40.79;101803.50;4976241;28;20125;-61
2023/03/05 03:31:44;;;;;;;8.25;2.13;;;;;;;13.38;40.46;101800.06;4976610;28;20062;-61
2023/03/05 03:34:11;;;;;;;3.55;1.77;;;;;;;13.37;40.19;101795.66;4976248;28;20035;-61
2023/03/05 03:36:36;;;;;;;4.25;1.13;;;;;;;13.37;40.10;101803.72;4977490;28;20043;-61
2023/03/05 03:39:03;;;;;;;6.55;1.77;;;;;;;13.37;41.22;101792.13;4976375;28;20042;-61
2023/03/05 03:41:28;;;;;;;5.47;2.33;;;;;;;13.35;40.26;101789.56;4976288;28;20035;-61
2023/03/05 03:43:53;;;;;;;7.50;1.15;;;;;;;13.35;40.22;101788.69;4959952;28;20034;-62
2023/03/05 03:46:19;;;;;;;7.50;1.30;;;;;;;13.31;40.39;101782.72;4976474;28;20031;-61
2023/03/05 03:48:44;;;;;;;5.80;1.35;;;;;;;13.32;40.94;101786.25;4976009;28;20043;-61
2023/03/05 03:51:09;;;;;;;5.00;1.35;;;;;;;13.26;40.06;101776.84;4975959;28;20070;-61
2023/03/05 03:53:35;;;;;;;4.10;1.40;;;;;;;13.30;40.49;101790.91;4959871;28;20035;-62
2023/03/05 03:56:00;;;;;;;6.28;1.52;;;;;;;13.27;40.95;101770.47;4975963;28;20038;-61
2023/03/05 03:58:26;;;;;;;10.50;2.47;;;;;;;13.27;40.04;101781.25;4944480;28;20081;-61
2023/03/05 04:00:51;;;;;;;5.90;1.98;;;;;;;13.19;40.19;101755.94;4944167;28;20528;-61
2023/03/05 04:03:16;;;;;;;7.50;1.90;;;;;;;13.27;41.05;101773.19;4975971;28;20509;-62
2023/03/05 04:05:42;;;;;;;5.70;1.50;;;;;;;13.27;40.80;101769.63;4976478;28;20039;-61
2023/03/05 04:08:10;;;;;;;4.80;1.30;;;;;;;13.25;40.42;101772.44;4975892;28;20119;-61
2023/03/05 04:10:38;;;;;;;3.97;1.23;;;;;;;13.25;41.21;101766.22;4960393;28;20039;-61
2023/03/05 04:13:03;;;;;;;3.80;1.00;;;;;;;13.16;40.82;101748.97;4943876;28;20041;-61
2023/03/05 04:15:29;;;;;;;7.55;1.40;;;;;;;13.23;39.97;101760.94;4976684;28;20039;-62
2023/03/05 04:17:54;;;;;;;10.32;1.35;;;;;;;13.15;41.19;101741.88;4975035;28;20387;-61
2023/03/05 04:20:19;;;;;;;3.63;0.90;;;;;;;13.20;40.24;101754.97;4975429;28;20038;-61
2023/03/05 04:22:45;;;;;;;4.18;1.17;;;;;;;13.21;41.33;101752.13;4977021;28;20046;-61
2023/03/05 04:25:10;;;;;;;3.00;1.38;;;;;;;13.11;40.52;101732.34;4976621;28;20050;-61
2023/03/05 04:27:36;;;;;;;4.90;1.67;;;;;;;13.19;40.27;101746.03;4975198;28;20039;-61
2023/03/05 04:30:03;;;;;;;5.63;1.30;;;;;;;13.06;40.59;101723.75;4976477;28;20042;-61
2023/03/05 04:32:28;;;;;;;4.75;1.25;;;;;;;13.18;40.81;101740.75;4959073;28;20055;-61
2023/03/05 04:34:55;;;;;;;10.25;1.50;;;;;;;13.16;40.97;101738.22;4975246;28;20126;-62
2023/03/05 04:37:21;;;;;;;4.40;1.27;;;;;;;13.17;41.21;101734.56;4975001;28;20471;-61
2023/03/05 04:39:46;;;;;;;7.55;1.60;;;;;;;13.07;41.06;101720.09;4975148;28;20125;-61
2023/03/05 04:42:11;;;;;;;7.88;1.88;;;;;;;13.16;40.46;101735.53;4976143;28;20052;-61
2023/03/05 04:44:38;;;;;;;5.40;1.85;;;;;;;13.16;41.22;101734.66;4958877;28;20041;-60
2023/03/05 04:47:03;;;;;;;3.30;1.65;;;;;;;13.08;40.95;101707.53;4958677;28;20034;-62
2023/03/05 04:49:28;;;;;;;4.00;1.17;;;;;;;13.13;41.59;101719.63;4959818;28;20035;-61
2023/03/05 04:51:56;;;;;;;8.20;1.52;;;;;;;13.13;41.37;101724.13;4958781;28;20035;-61
2023/03/05 04:54:22;;;;;;;9.10;1.55;;;;;;;13.13;41.59;101725.00;4976163;28;20129;-62
2023/03/05 04:56:47;;;;;;;9.93;1.77;;;;;;;13.13;41.47;101722.31;4958528;28;20417;-61
2023/03/05 04:59:13;;;;;;;6.53;1.48;;;;;;;13.04;41.46;101714.94;4974888;28;20049;-61
2023/03/05 05:01:38;;;;;;;5.60;1.30;;;;;;;13.09;40.89;101712.75;4976334;28;20042;-61
2023/03/05 05:04:03;;;;;;;7.75;1.33;;;;;;;13.09;41.29;101717.31;4974796;28;20113;-61
2023/03/05 05:06:29;;;;;;;3.42;1.33;;;;;;;13.09;41.33;101723.53;4974654;28;20045;-61
2023/03/05 05:08:54;;;;;;;8.45;1.08;;;;;;;13.07;41.57;101730.88;4975880;28;20134;-61
2023/03/05 05:11:20;;;;;;;3.03;1.58;;;;;;;13.05;41.38;101723.88;4974893;28;20102;-62
2023/03/05 05:13:45;;;;;;;4.95;1.50;;;;;;;13.05;40.71;101715.81;4974895;28;20035;-62
2023/03/05 05:16:11;;;;;;;7.05;1.52;;;;;;;13.04;41.05;101720.31;4958475;28;20421;-61
2023/03/05 05:18:36;;;;;;;6.45;1.70;;;;;;;12.99;41.37;101709.09;4974408;28;20093;-61
2023/03/05 05:21:09;;;;;;;5.40;1.33;;;;;;;12.91;41.82;101691.84;4974524;28;20052;-61
2023/03/05 05:23:35;;;;;;;4.50;1.02;;;;;;;13.04;41.75;101708.69;4958156;28;20043;-61
2023/03/05 05:26:02;;;;;;;4.13;1.70;;;;;;;13.04;40.69;101704.19;4974242;28;20118;-61
2023/03/05 05:28:28;;;;;;;9.23;2.03;;;;;;;13.02;40.97;101700.78;4974680;28;20031;-61
2023/03/05 05:30:54;;;;;;;5.90;1.77;;;;;;;12.91;41.23;101692.72;4973892;28;20050;-61
2023/03/05 05:33:20;;;;;;;3.28;1.50;;;;;;;13.01;41.25;101692.84;4957957;28;20042;-61
2023/03/05 05:35:46;;;;;;;6.55;1.65;;;;;;;12.92;41.34;101677.44;4957953;28;20043;-62
2023/03/05 05:38:11;;;;;;;10.00;1.85;;;;;;;12.98;40.75;101687.72;4957982;28;20054;-61
2023/03/05 05:40:36;;;;;;;3.70;1.50;;;;;;;12.99;41.17;101694.78;4974535;28;20502;-61
2023/03/05 05:43:02;;;;;;;5.82;1.55;;;;;;;12.98;41.27;101695.78;4975171;28;20042;-61
2023/03/05 05:45:27;;;;;;;6.40;2.17;;;;;;;12.93;41.84;101690.75;4957884;28;20038;-61
2023/03/05 05:47:53;;;;;;;8.90;1.60;;;;;;;12.93;41.80;101685.38;4972831;28;20042;-62
2023/03/05 05:50:19;;;;;;;3.97;1.48;;;;;;;12.98;41.47;101704.66;4973703;28;20106;-61
2023/03/05 05:52:45;;;;;;;1.63;1.38;;;;;;;12.97;40.72;101692.22;4958351;28;20410;-61
2023/03/05 05:55:10;;;;;;;2.72;1.50;;;;;;;12.96;41.22;101687.81;4973731;28;20045;-61
2023/03/05 05:57:36;;;;;;;2.58;1.52;;;;;;;12.89;41.14;101673.16;4973678;28;20035;-61
2023/03/05 06:00:05;;;;;;;7.70;2.25;;;;;;;12.95;41.53;101677.19;4974794;28;20114;-61
2023/03/05 06:02:30;;;;;;;3.03;1.90;;;;;;;12.90;41.71;101669.47;4958046;28;20039;-61
2023/03/05 06:04:56;;;;;;;2.00;1.50;;;;;;;12.88;41.84;101670.59;4958151;28;20139;-61
2023/03/05 06:07:21;;;;;;;6.35;1.90;;;;;;;12.76;40.99;101658.97;4958222;28;20074;-61
2023/03/05 06:09:47;;;;;;;5.97;2.28;;;;;;;12.82;40.76;101666.56;4974784;28;20038;-61
2023/03/05 06:12:12;;;;;;;10.45;1.88;;;;;;;12.82;41.59;101671.94;4957431;28;20125;-61
2023/03/05 06:14:38;;;;;;;4.13;2.25;;;;;;;12.81;41.93;101678.31;4974840;28;20058;-61
2023/03/05 06:17:03;;;;;;;7.05;2.13;;;;;;;12.81;40.98;101678.31;4957514;28;20062;-61
2023/03/05 06:19:28;;;;;;;6.65;2.05;;;;;;;12.82;41.19;101682.69;4975426;28;20143;-61
2023/03/05 06:21:54;;;;;;;5.57;1.60;;;;;;;12.82;41.45;101680.00;4957550;28;20046;-61
2023/03/05 06:24:19;;;;;;;9.05;1.90;;;;;;;12.83;41.50;101687.97;4974985;28;20042;-61
2023/03/05 06:26:45;;;;;;;7.50;2.28;;;;;;;12.85;41.35;101687.81;4973087;28;20422;-62
2023/03/05 06:29:11;;;;;;;4.18;1.90;;;;;;;12.77;41.77;101668.75;4973150;28;20058;-62
2023/03/05 06:31:37;;;;;;;7.38;2.20;;;;;;;12.85;42.21;101685.13;4974589;28;20085;-60
2023/03/05 06:34:03;;;;;;;4.55;2.00;;;;;;;12.86;41.50;101673.41;4957264;28;20035;-62
2023/03/05 06:36:29;;;;;;;5.85;1.98;;;;;;;12.79;41.38;101656.03;4974262;28;20038;-61
2023/03/05 06:38:55;;;;;;;7.10;2.65;;;;;;;12.75;42.22;101646.53;4956946;28;20080;-61
2023/03/05 06:41:23;;;;;;;3.05;1.98;;;;;;;12.88;41.35;101668.75;4973010;28;20402;-60
2023/03/05 06:43:49;;;;;;;9.20;2.55;;;;;;;12.89;41.78;101667.78;4973449;28;20045;-61
2023/03/05 06:46:23;;;;;;;8.32;2.38;;;;;;;12.90;41.65;101672.16;4956746;28;20502;-62
2023/03/05 06:48:49;;;;;;;3.83;2.17;;;;;;;12.89;41.36;101670.47;4956797;28;20039;-61
2023/03/05 06:51:26;;;;;;;8.93;1.95;;;;;;;12.90;41.70;101664.09;4974335;28;20106;-61
2023/03/05 06:53:52;;;;;;;4.78;1.98;;;;;;;12.91;41.57;101671.19;4974125;28;20089;-61
2023/03/05 06:56:19;;;;;;;3.15;2.33;;;;;;;12.92;42.08;101672.91;4974137;28;20035;-61
2023/03/05 06:58:46;;;;;;;8.25;2.67;;;;;;;12.91;41.36;101673.88;4973307;28;20434;-61
2023/03/05 07:01:13;;;;;;;4.57;2.13;;;;;;;12.92;41.26;101670.22;4956758;28;20042;-61
2023/03/05 07:03:39;;;;;;;8.27;3.50;;;;;;;12.84;41.85;101656.56;4973076;28;20031;-61
2023/03/05 07:06:06;;;;;;;5.07;2.40;;;;;;;12.88;41.56;101666.06;4972634;28;20118;-61
2023/03/05 07:08:31;;;;;;;6.82;2.60;;;;;;;12.98;42.05;101671.56;4956729;28;20060;-61
2023/03/05 07:10:57;;;;;;;8.85;3.25;;;;;;;12.99;41.50;101667.88;4972797;28;20022;-61
2023/03/05 07:13:23;;;;;;;12.45;3.38;;;;;;;13.00;41.63;101658.84;4957087;28;20034;-61
2023/03/05 07:15:49;;;;;;;11.93;2.85;;;;;;;13.02;41.85;101668.50;4972813;28;20105;-61
2023/03/05 07:18:14;;;;;;;4.75;2.53;;;;;;;12.95;42.04;101651.16;4972531;28;20506;-63
2023/03/05 07:20:39;;;;;;;8.70;2.90;;;;;;;12.90;41.95;101641.75;4972766;28;20051;-62
2023/03/05 07:23:05;;;;;;;7.05;2.35;;;;;;;13.08;41.91;101662.66;4973858;28;20030;-62
2023/03/05 07:25:30;;;;;;;8.63;2.70;;;;;;;13.10;41.61;101660.69;4972946;28;20027;-63
2023/03/05 07:27:56;;;;;;;11.30;3.28;;;;;;;13.12;42.00;101663.28;4956790;28;20043;-61
2023/03/05 07:30:22;;;;;;;6.10;2.85;;;;;;;13.13;41.68;101657.75;4956691;28;20035;-63
2023/03/05 07:32:47;;;;;;;8.32;2.55;;;;;;;13.14;41.57;101658.63;4956499;28;20529;-62
2023/03/05 07:35:13;;;;;;;6.53;2.60;;;;;;;13.13;41.64;101660.44;4972529;28;20115;-62
2023/03/05 07:37:38;;;;;;;7.57;2.33;;;;;;;13.08;41.37;101651.03;4973419;28;20097;-61
2023/03/05 07:40:05;;;;;;;11.60;2.38;;;;;;;13.05;41.64;101646.72;4971927;28;20054;-61
2023/03/05 07:42:30;;;;;;;4.43;2.05;;;;;;;13.14;41.56;101655.94;4955956;28;20030;-62
2023/03/05 07:44:56;;;;;;;5.22;2.10;;;;;;;13.18;42.03;101647.47;4972570;28;20403;-61
2023/03/05 07:47:22;;;;;;;12.57;2.88;;;;;;;13.16;41.32;101633.28;4956186;28;20402;-62
2023/03/05 07:49:48;;;;;;;10.20;2.90;;;;;;;13.29;41.33;101649.25;4941034;28;20038;-62
2023/03/05 07:52:14;;;;;;;9.50;3.25;;;;;;;13.21;42.12;101624.84;4956215;28;20030;-61
2023/03/05 07:54:39;;;;;;;7.00;3.13;;;;;;;13.37;41.23;101646.81;4955993;28;20454;-63
2023/03/05 07:57:06;;;;;;;7.65;3.22;;;;;;;13.39;41.16;101640.34;4970907;28;20031;-63
2023/03/05 07:59:32;;;;;;;9.27;3.72;;;;;;;13.36;41.68;101629.81;4955522;28;20077;-62
2023/03/05 08:01:58;;;;;;;6.47;2.40;;;;;;;13.47;41.59;101642.38;4971273;28;20066;-61
2023/03/05 08:04:24;;;;;;;6.43;3.03;;;;;;;13.51;41.95;101643.84;4971912;28;20034;-62
2023/03/05 08:06:50;;;;;;;15.55;3.25;;;;;;;13.55;41.45;101639.03;4972416;28;20039;-62
2023/03/05 08:09:16;;;;;;;4.68;2.45;;;;;;;13.59;41.35;101640.50;4955265;28;20038;-62
2023/03/05 08:11:42;;;;;;;5.43;2.38;;;;;;;13.63;41.96;101636.56;4957240;28;20059;-63
2023/03/05 08:14:08;;;;;;;5.05;2.90;;;;;;;13.58;41.72;101619.94;4974714;28;20042;-62
2023/03/05 08:16:34;;;;;;;6.40;2.45;;;;;;;13.64;41.90;101630.19;4976548;28;20022;-62
2023/03/05 08:18:59;;;;;;;8.90;2.60;;;;;;;13.61;41.37;101625.91;4958650;28;20063;-62
2023/03/05 08:21:28;;;;;;;9.68;3.13;;;;;;;13.58;42.11;101628.88;4974794;28;20438;-62
2023/03/05 08:23:54;;;;;;;7.35;2.50;;;;;;;13.42;41.60;101609.63;4974590;28;20518;-63
2023/03/05 08:26:22;;;;;;;10.43;2.75;;;;;;;13.40;42.01;101604.34;4958337;28;20062;-62
2023/03/05 08:28:48;;;;;;;6.90;2.55;;;;;;;13.44;41.54;101607.63;4975828;28;20054;-62
2023/03/05 08:31:15;;;;;;;5.90;2.33;;;;;;;13.39;42.16;101621.50;4958263;28;20566;-62
2023/03/05 08:33:41;;;;;;;5.28;1.80;;;;;;;13.36;41.97;101613.66;4958273;28;20031;-62
2023/03/05 08:36:07;;;;;;;5.30;2.33;;;;;;;13.25;41.66;101600.25;4976291;28;20035;-62
2023/03/05 08:38:33;;;;;;;10.20;2.88;;;;;;;13.18;42.40;101604.41;4974505;28;20034;-62
2023/03/05 08:40:58;;;;;;;9.13;2.50;;;;;;;13.18;42.85;101607.13;4958184;28;20022;-63
2023/03/05 08:43:24;;;;;;;7.93;3.38;;;;;;;13.22;42.80;101613.97;4958688;28;20037;-63
2023/03/05 08:45:50;;;;;;;7.72;2.78;;;;;;;13.22;42.00;101611.28;4957846;28;20090;-62
2023/03/05 08:48:15;;;;;;;8.05;3.60;;;;;;;13.20;42.82;101613.25;4958126;28;20413;-62
2023/03/05 08:50:41;;;;;;;4.45;2.97;;;;;;;13.21;41.85;101614.06;4974932;28;20043;-62
2023/03/05 08:53:07;;;;;;;7.32;3.03;;;;;;;13.24;42.42;101619.19;4974208;28;20371;-61
2023/03/05 08:55:32;;;;;;;6.85;3.42;;;;;;;13.23;42.29;101612.97;4974403;28;20030;-61
2023/03/05 08:57:58;;;;;;;12.30;3.85;;;;;;;13.17;42.70;101589.28;4957930;28;20035;-61
2023/03/05 09:00:23;;;;;;;11.73;3.03;;;;;;;13.30;42.86;101598.03;4974056;28;20054;-62
2023/03/05 09:02:49;;;;;;;7.95;3.47;;;;;;;13.34;42.93;101594.09;4941742;28;20506;-61
2023/03/05 09:05:14;;;;;;;7.60;3.08;;;;;;;13.43;42.10;101602.41;4974995;28;20081;-61
2023/03/05 09:07:40;;;;;;;9.85;3.45;;;;;;;13.52;42.02;101598.91;4973974;28;20077;-61
2023/03/05 09:10:06;;;;;;;7.57;3.42;;;;;;;13.59;43.05;101586.66;4974875;28;20042;-61
2023/03/05 09:12:31;;;;;;;9.40;3.35;;;;;;;13.65;41.68;101597.75;4957625;28;20094;-62
2023/03/05 09:14:57;;;;;;;15.50;4.40;;;;;;;13.62;41.53;101581.03;4973765;28;20407;-62
2023/03/05 09:17:22;;;;;;;8.90;3.53;;;;;;;13.66;42.06;101577.06;4973558;28;20058;-62
2023/03/05 09:19:48;;;;;;;7.93;3.33;;;;;;;13.76;41.87;101578.84;4958068;28;20028;-61
2023/03/05 09:22:14;;;;;;;8.93;3.53;;;;;;;13.80;41.54;101580.28;4957487;28;20034;-62
2023/03/05 09:24:39;;;;;;;5.43;3.72;;;;;;;13.79;42.10;101566.97;4974703;28;20089;-61
2023/03/05 09:27:05;;;;;;;7.00;3.88;;;;;;;13.90;41.95;101574.97;4957297;28;20514;-62
2023/03/05 09:29:30;;;;;;;9.55;3.67;;;;;;;13.85;42.41;101563.72;4973350;28;20062;-62
2023/03/05 09:31:56;;;;;;;9.43;4.88;;;;;;;13.95;42.44;101572.75;4940958;28;20078;-62
2023/03/05 09:34:22;;;;;;;8.23;4.43;;;;;;;13.90;42.15;101559.66;4974883;28;20037;-62
2023/03/05 09:36:48;;;;;;;11.55;4.75;;;;;;;14.06;42.92;101564.56;4973247;28;20517;-63
2023/03/05 09:39:14;;;;;;;14.65;4.53;;;;;;;14.10;42.64;101568.69;4974398;28;20034;-62
2023/03/05 09:42:07;;;;;;;8.85;5.45;;;;;;;14.16;41.88;101559.22;4957226;28;20037;-61
2023/03/05 09:44:51;;;;;;;;;;;;;;;14.18;41.64;101558.09;4974761;28;20093;-61
2023/03/05 09:47:38;;;;;;;11.15;5.00;;;;;;;14.23;41.73;101553.19;4974771;28;19918;-62
2023/03/05 09:50:16;;;;;;;9.57;5.25;;;;;;;14.30;41.29;101551.63;4989292;28;20507;-62
2023/03/05 09:52:49;;;;;;;7.25;4.47;;;;;;;14.41;41.21;101551.56;4957439;28;20134;-62
2023/03/05 09:55:39;;;;;;;6.55;4.75;;;;;;;14.34;42.21;101523.47;4972914;28;20035;-62
2023/03/05 09:58:14;;;;;;;7.72;5.25;;;;;;;14.42;42.26;101529.03;4972858;28;20062;-62
2023/03/05 10:00:58;;;;;;;9.68;4.97;;;;;;;14.56;42.73;101542.13;4973092;28;20039;-62
2023/03/05 10:03:41;;;;;;;6.60;4.28;;;;;;;14.59;42.38;101535.63;4972692;28;20441;-62
2023/03/05 10:06:15;;;;;;;8.40;4.88;;;;;;;14.65;42.40;101536.91;4988902;28;20049;-61
2023/03/05 10:09:13;;;;;;;5.22;3.72;;;;;;;14.82;41.43;101533.53;4988774;28;20035;-61
2023/03/05 10:11:49;;;;;;;6.57;3.30;;;;;;;15.33;40.44;101527.88;4988221;28;20035;-61
2023/03/05 10:14:29;;;;;;;6.82;3.13;;;;;;;15.65;41.10;101523.91;4956331;28;20062;-61
2023/03/05 10:17:25;;;;;;;6.45;3.80;;;;;;;15.63;41.23;101519.66;4972429;28;20031;-62
2023/03/05 10:20:01;;;;;;;8.52;3.50;;;;;;;15.60;40.46;101526.22;4974386;28;20022;-62
2023/03/05 10:22:31;;;;;;;5.22;2.67;;;;;;;15.62;40.84;101516.09;4973962;28;20569;-61
2023/03/05 10:25:24;;;;;;;4.07;2.60;;;;;;;15.59;41.65;101516.38;4972755;28;20513;-62
2023/03/05 10:27:54;;;;;;;4.63;2.63;;;;;;;15.51;40.43;101518.97;4973808;28;20039;-61
2023/03/05 10:30:22;;;;;;;6.80;2.40;;;;;;;15.48;41.15;101513.84;4955995;28;20031;-62
2023/03/05 10:33:09;;;;;;;5.80;3.08;;;;;;;15.50;40.58;101516.38;4973435;28;20126;-62
2023/03/05 10:36:01;;;;;;;6.30;2.47;;;;;;;15.44;41.51;101511.53;4973624;28;20038;-61
2023/03/05 10:38:34;;;;;;;3.15;2.33;;;;;;;15.42;41.35;101508.97;4962935;28;20038;-62
2023/03/05 10:41:12;;;;;;;5.22;2.10;;;;;;;15.32;40.90;101491.97;4956081;28;20027;-62
2023/03/05 10:43:40;;;;;;;4.78;2.03;;;;;;;15.43;41.39;101504.44;4956327;28;20045;-61
2023/03/05 10:46:13;;;;;;;3.08;2.08;;;;;;;15.43;41.20;101499.91;4972119;28;20169;-61
2023/03/05 10:48:44;;;;;;;2.58;1.80;;;;;;;15.49;41.68;101499.38;4955780;28;20038;-62
2023/03/05 10:51:18;;;;;;;9.80;1.75;;;;;;;15.52;41.55;101496.34;4971643;28;20102;-61
2023/03/05 10:53:43;;;;;;;2.83;1.75;;;;;;;15.54;40.77;101488.97;4955909;28;20578;-61
2023/03/05 10:56:09;;;;;;;4.50;2.30;;;;;;;15.49;41.01;101472.34;4973301;28;20105;-61
2023/03/05 10:58:34;;;;;;;4.40;2.13;;;;;;;15.58;41.51;101490.38;4940369;28;20394;-62
2023/03/05 11:01:04;;;;;;;5.43;2.28;;;;;;;15.56;41.51;101488.81;4939960;28;20035;-61
2023/03/05 11:03:45;;;;;;;3.60;1.80;;;;;;;15.55;40.72;101485.25;4956304;28;20031;-61
2023/03/05 11:06:11;;;;;;;3.47;1.90;;;;;;;15.59;40.76;101485.81;4973144;28;20039;-63
2023/03/05 11:08:37;;;;;;;5.82;2.10;;;;;;;15.60;40.04;101485.69;4971771;28;20027;-61
2023/03/05 11:11:08;;;;;;;2.85;1.67;;;;;;;15.65;39.99;101475.31;4971868;28;20045;-62
2023/03/05 11:13:51;;;;;;;8.90;2.25;;;;;;;15.73;40.49;101472.72;4973515;28;20019;-62
2023/03/05 11:16:23;;;;;;;3.05;2.20;;;;;;;15.84;40.15;101471.69;4955998;28;20035;-62
2023/03/05 11:18:48;;;;;;;3.17;2.13;;;;;;;15.83;40.36;101458.34;4955607;28;20039;-62
2023/03/05 11:21:28;;;;;;;6.13;2.10;;;;;;;15.91;39.50;101463.84;4955716;28;20031;-61
2023/03/05 11:24:14;;;;;;;4.63;2.40;;;;;;;15.91;39.64;101461.16;4971777;28;20461;-61
2023/03/05 11:26:51;;;;;;;5.03;1.80;;;;;;;15.92;40.80;101462.81;4971506;28;20054;-61